sensor_id;sensor_type;location;lat;lon;timestamp;P1;durP1;ratioP1;P2;durP2;ratioP2
78342;SDS011;67618;52.444;21.192;2023-03-14T00:02:27;7.40;;;4.20;;
78342;SDS011;67618;52.444;21.192;2023-03-14T00:07:29;10.40;;;5.40;;
78342;SDS011;67618;52.444;21.192;2023-03-14T00:12:39;8.40;;;4.70;;
78342;SDS011;67618;52.444;21.192;2023-03-14T00:22:44;12.10;;;6.00;;
78342;SDS011;67618;52.444;21.192;2023-03-14T00:27:45;8.80;;;4.80;;
78342;SDS011;67618;52.444;21.192;2023-03-14T00:32:47;8.10;;;4.80;;
78342;SDS011;67618;52.444;21.192;2023-03-14T00:37:48;10.00;;;5.10;;
78342;SDS011;67618;52.444;21.192;2023-03-14T00:42:50;7.90;;;4.90;;
78342;SDS011;67618;52.444;21.192;2023-03-14T00:47:51;9.80;;;5.20;;
78342;SDS011;67618;52.444;21.192;2023-03-14T00:52:52;10.00;;;4.80;;
78342;SDS011;67618;52.444;21.192;2023-03-14T00:57:54;10.80;;;5.90;;
78342;SDS011;67618;52.444;21.192;2023-03-14T01:02:55;8.90;;;5.10;;
78342;SDS011;67618;52.444;21.192;2023-03-14T01:07:57;12.40;;;5.90;;
78342;SDS011;67618;52.444;21.192;2023-03-14T01:12:58;9.80;;;5.40;;
78342;SDS011;67618;52.444;21.192;2023-03-14T01:18:00;10.10;;;5.80;;
78342;SDS011;67618;52.444;21.192;2023-03-14T01:23:01;12.10;;;5.30;;
78342;SDS011;67618;52.444;21.192;2023-03-14T01:28:03;12.80;;;5.30;;
78342;SDS011;67618;52.444;21.192;2023-03-14T01:33:04;10.80;;;5.40;;
78342;SDS011;67618;52.444;21.192;2023-03-14T01:38:06;9.60;;;5.70;;
78342;SDS011;67618;52.444;21.192;2023-03-14T01:43:18;8.70;;;5.60;;
78342;SDS011;67618;52.444;21.192;2023-03-14T01:48:20;10.10;;;5.40;;
78342;SDS011;67618;52.444;21.192;2023-03-14T01:53:22;10.30;;;5.20;;
78342;SDS011;67618;52.444;21.192;2023-03-14T01:58:24;8.50;;;5.70;;
78342;SDS011;67618;52.444;21.192;2023-03-14T02:03:29;10.40;;;5.20;;
78342;SDS011;67618;52.444;21.192;2023-03-14T02:08:35;9.40;;;5.00;;
78342;SDS011;67618;52.444;21.192;2023-03-14T02:13:40;8.40;;;5.60;;
78342;SDS011;67618;52.444;21.192;2023-03-14T02:18:41;8.30;;;4.70;;
78342;SDS011;67618;52.444;21.192;2023-03-14T02:23:46;8.70;;;5.40;;
78342;SDS011;67618;52.444;21.192;2023-03-14T02:28:56;10.60;;;5.50;;
78342;SDS011;67618;52.444;21.192;2023-03-14T02:33:57;8.20;;;4.80;;
78342;SDS011;67618;52.444;21.192;2023-03-14T02:39:08;9.40;;;5.20;;
78342;SDS011;67618;52.444;21.192;2023-03-14T02:44:15;8.30;;;5.40;;
78342;SDS011;67618;52.444;21.192;2023-03-14T02:49:16;10.60;;;4.90;;
78342;SDS011;67618;52.444;21.192;2023-03-14T02:54:18;12.00;;;5.20;;
78342;SDS011;67618;52.444;21.192;2023-03-14T02:59:21;13.50;;;5.40;;
78342;SDS011;67618;52.444;21.192;2023-03-14T03:04:23;11.40;;;5.20;;
78342;SDS011;67618;52.444;21.192;2023-03-14T03:09:24;11.40;;;5.30;;
78342;SDS011;67618;52.444;21.192;2023-03-14T03:14:26;10.20;;;5.60;;
78342;SDS011;67618;52.444;21.192;2023-03-14T03:19:27;12.30;;;5.50;;
78342;SDS011;67618;52.444;21.192;2023-03-14T03:24:28;12.60;;;5.30;;
78342;SDS011;67618;52.444;21.192;2023-03-14T03:29:30;12.10;;;5.30;;
78342;SDS011;67618;52.444;21.192;2023-03-14T03:34:31;10.40;;;4.90;;
78342;SDS011;67618;52.444;21.192;2023-03-14T03:39:33;8.80;;;5.40;;
78342;SDS011;67618;52.444;21.192;2023-03-14T03:44:34;10.00;;;8.10;;
78342;SDS011;67618;52.444;21.192;2023-03-14T03:49:36;7.80;;;5.30;;
78342;SDS011;67618;52.444;21.192;2023-03-14T03:54:37;15.50;;;12.10;;
78342;SDS011;67618;52.444;21.192;2023-03-14T03:59:38;6.80;;;4.30;;
78342;SDS011;67618;52.444;21.192;2023-03-14T04:04:42;7.10;;;5.10;;
78342;SDS011;67618;52.444;21.192;2023-03-14T04:09:43;7.90;;;4.70;;
78342;SDS011;67618;52.444;21.192;2023-03-14T04:14:45;8.50;;;4.70;;
78342;SDS011;67618;52.444;21.192;2023-03-14T04:19:46;11.20;;;5.40;;
78342;SDS011;67618;52.444;21.192;2023-03-14T04:24:50;15.60;;;7.10;;
78342;SDS011;67618;52.444;21.192;2023-03-14T04:29:52;12.50;;;5.60;;
78342;SDS011;67618;52.444;21.192;2023-03-14T04:34:53;16.80;;;6.80;;
78342;SDS011;67618;52.444;21.192;2023-03-14T04:39:55;16.80;;;6.50;;
78342;SDS011;67618;52.444;21.192;2023-03-14T04:44:56;11.90;;;5.30;;
78342;SDS011;67618;52.444;21.192;2023-03-14T04:49:57;18.20;;;7.30;;
78342;SDS011;67618;52.444;21.192;2023-03-14T04:54:59;13.20;;;6.90;;
78342;SDS011;67618;52.444;21.192;2023-03-14T05:00:01;8.90;;;4.70;;
78342;SDS011;67618;52.444;21.192;2023-03-14T05:05:07;9.80;;;5.90;;
78342;SDS011;67618;52.444;21.192;2023-03-14T05:10:09;9.10;;;5.40;;
78342;SDS011;67618;52.444;21.192;2023-03-14T05:15:11;6.70;;;4.40;;
78342;SDS011;67618;52.444;21.192;2023-03-14T05:20:12;17.00;;;11.20;;
78342;SDS011;67618;52.444;21.192;2023-03-14T05:25:14;17.80;;;10.50;;
78342;SDS011;67618;52.444;21.192;2023-03-14T05:30:15;16.80;;;7.30;;
78342;SDS011;67618;52.444;21.192;2023-03-14T05:35:17;11.70;;;5.30;;
78342;SDS011;67618;52.444;21.192;2023-03-14T05:40:18;11.10;;;6.80;;
78342;SDS011;67618;52.444;21.192;2023-03-14T05:45:22;9.70;;;5.30;;
78342;SDS011;67618;52.444;21.192;2023-03-14T05:50:24;7.20;;;4.70;;
78342;SDS011;67618;52.444;21.192;2023-03-14T05:55:25;10.80;;;5.60;;
78342;SDS011;67618;52.444;21.192;2023-03-14T06:00:27;7.40;;;4.40;;
78342;SDS011;67618;52.444;21.192;2023-03-14T06:05:28;6.90;;;4.60;;
78342;SDS011;67618;52.444;21.192;2023-03-14T06:10:30;7.10;;;4.30;;
78342;SDS011;67618;52.444;21.192;2023-03-14T06:15:32;8.50;;;4.60;;
78342;SDS011;67618;52.444;21.192;2023-03-14T06:20:37;9.70;;;5.00;;
78342;SDS011;67618;52.444;21.192;2023-03-14T06:25:42;5.30;;;3.70;;
78342;SDS011;67618;52.444;21.192;2023-03-14T06:30:43;6.70;;;4.10;;
78342;SDS011;67618;52.444;21.192;2023-03-14T06:35:45;8.30;;;4.80;;
78342;SDS011;67618;52.444;21.192;2023-03-14T06:40:46;9.10;;;4.70;;
78342;SDS011;67618;52.444;21.192;2023-03-14T06:45:48;8.40;;;5.00;;
78342;SDS011;67618;52.444;21.192;2023-03-14T06:50:49;6.60;;;4.80;;
78342;SDS011;67618;52.444;21.192;2023-03-14T06:55:51;5.40;;;3.20;;
78342;SDS011;67618;52.444;21.192;2023-03-14T07:00:52;6.40;;;4.30;;
78342;SDS011;67618;52.444;21.192;2023-03-14T07:05:55;7.40;;;5.40;;
78342;SDS011;67618;52.444;21.192;2023-03-14T07:10:57;10.70;;;5.40;;
78342;SDS011;67618;52.444;21.192;2023-03-14T07:15:59;7.40;;;4.60;;
78342;SDS011;67618;52.444;21.192;2023-03-14T07:21:00;8.00;;;4.60;;
78342;SDS011;67618;52.444;21.192;2023-03-14T07:26:01;6.60;;;4.10;;
78342;SDS011;67618;52.444;21.192;2023-03-14T07:31:03;7.40;;;4.60;;
78342;SDS011;67618;52.444;21.192;2023-03-14T07:36:05;7.70;;;4.40;;
78342;SDS011;67618;52.444;21.192;2023-03-14T07:41:07;10.10;;;4.40;;
78342;SDS011;67618;52.444;21.192;2023-03-14T07:46:09;9.00;;;7.20;;
78342;SDS011;67618;52.444;21.192;2023-03-14T07:51:11;9.60;;;5.80;;
78342;SDS011;67618;52.444;21.192;2023-03-14T07:56:13;6.90;;;4.20;;
78342;SDS011;67618;52.444;21.192;2023-03-14T08:01:15;5.40;;;3.80;;
78342;SDS011;67618;52.444;21.192;2023-03-14T08:06:16;6.00;;;3.90;;
78342;SDS011;67618;52.444;21.192;2023-03-14T08:11:18;10.90;;;5.00;;
78342;SDS011;67618;52.444;21.192;2023-03-14T08:16:19;13.00;;;5.10;;
78342;SDS011;67618;52.444;21.192;2023-03-14T08:21:21;10.10;;;4.40;;
78342;SDS011;67618;52.444;21.192;2023-03-14T08:26:22;12.90;;;5.60;;
78342;SDS011;67618;52.444;21.192;2023-03-14T08:31:24;8.20;;;4.50;;
78342;SDS011;67618;52.444;21.192;2023-03-14T08:36:25;7.80;;;4.90;;
78342;SDS011;67618;52.444;21.192;2023-03-14T08:41:27;8.00;;;4.10;;
78342;SDS011;67618;52.444;21.192;2023-03-14T08:46:28;8.60;;;4.80;;
78342;SDS011;67618;52.444;21.192;2023-03-14T08:51:30;7.70;;;4.30;;
78342;SDS011;67618;52.444;21.192;2023-03-14T08:56:31;7.80;;;4.00;;
78342;SDS011;67618;52.444;21.192;2023-03-14T09:01:32;11.40;;;4.80;;
78342;SDS011;67618;52.444;21.192;2023-03-14T09:06:34;8.40;;;4.50;;
78342;SDS011;67618;52.444;21.192;2023-03-14T09:11:36;7.20;;;4.50;;
78342;SDS011;67618;52.444;21.192;2023-03-14T09:16:38;6.70;;;4.30;;
78342;SDS011;67618;52.444;21.192;2023-03-14T09:21:39;7.10;;;4.40;;
78342;SDS011;67618;52.444;21.192;2023-03-14T09:26:41;7.70;;;3.90;;
78342;SDS011;67618;52.444;21.192;2023-03-14T09:31:42;7.80;;;4.10;;
78342;SDS011;67618;52.444;21.192;2023-03-14T09:36:44;8.40;;;4.30;;
78342;SDS011;67618;52.444;21.192;2023-03-14T09:41:46;7.20;;;4.00;;
78342;SDS011;67618;52.444;21.192;2023-03-14T09:46:50;10.60;;;4.10;;
78342;SDS011;67618;52.444;21.192;2023-03-14T09:51:55;6.00;;;3.20;;
78342;SDS011;67618;52.444;21.192;2023-03-14T09:56:59;8.20;;;3.70;;
78342;SDS011;67618;52.444;21.192;2023-03-14T10:02:01;7.30;;;3.50;;
78342;SDS011;67618;52.444;21.192;2023-03-14T10:07:03;7.00;;;3.50;;
78342;SDS011;67618;52.444;21.192;2023-03-14T10:12:04;6.10;;;3.30;;
78342;SDS011;67618;52.444;21.192;2023-03-14T10:17:10;8.10;;;3.70;;
78342;SDS011;67618;52.444;21.192;2023-03-14T10:22:14;6.60;;;3.80;;
78342;SDS011;67618;52.444;21.192;2023-03-14T10:27:20;6.80;;;3.70;;
78342;SDS011;67618;52.444;21.192;2023-03-14T10:32:28;7.50;;;3.20;;
78342;SDS011;67618;52.444;21.192;2023-03-14T10:43:17;5.10;;;2.40;;
78342;SDS011;67618;52.444;21.192;2023-03-14T10:48:36;4.90;;;2.90;;
78342;SDS011;67618;52.444;21.192;2023-03-14T10:53:41;6.80;;;3.30;;
78342;SDS011;67618;52.444;21.192;2023-03-14T10:58:46;5.50;;;2.80;;
78342;SDS011;67618;52.444;21.192;2023-03-14T11:14:43;4.30;;;2.40;;
78342;SDS011;67618;52.444;21.192;2023-03-14T11:36:10;4.40;;;3.00;;
78342;SDS011;67618;52.444;21.192;2023-03-14T11:40:58;5.90;;;3.20;;
78342;SDS011;67618;52.444;21.192;2023-03-14T11:46:05;5.00;;;3.00;;
78342;SDS011;67618;52.444;21.192;2023-03-14T11:51:13;7.60;;;3.30;;
78342;SDS011;67618;52.444;21.192;2023-03-14T11:56:29;6.80;;;3.40;;
78342;SDS011;67618;52.444;21.192;2023-03-14T12:01:48;7.40;;;3.10;;
78342;SDS011;67618;52.444;21.192;2023-03-14T12:06:54;6.70;;;3.50;;
78342;SDS011;67618;52.444;21.192;2023-03-14T12:11:59;6.60;;;4.40;;
78342;SDS011;67618;52.444;21.192;2023-03-14T12:17:06;4.70;;;3.00;;
78342;SDS011;67618;52.444;21.192;2023-03-14T12:22:21;5.50;;;3.30;;
78342;SDS011;67618;52.444;21.192;2023-03-14T12:27:43;6.60;;;3.50;;
78342;SDS011;67618;52.444;21.192;2023-03-14T12:43:33;7.30;;;4.00;;
78342;SDS011;67618;52.444;21.192;2023-03-14T12:48:37;6.70;;;4.30;;
78342;SDS011;67618;52.444;21.192;2023-03-14T12:58:55;7.40;;;4.20;;
78342;SDS011;67618;52.444;21.192;2023-03-14T13:04:18;6.90;;;4.30;;
78342;SDS011;67618;52.444;21.192;2023-03-14T13:09:34;6.80;;;3.60;;
78342;SDS011;67618;52.444;21.192;2023-03-14T13:14:41;6.60;;;4.70;;
78342;SDS011;67618;52.444;21.192;2023-03-14T13:19:48;7.90;;;4.50;;
78342;SDS011;67618;52.444;21.192;2023-03-14T13:25:04;6.90;;;4.40;;
78342;SDS011;67618;52.444;21.192;2023-03-14T13:30:22;11.10;;;7.00;;
78342;SDS011;67618;52.444;21.192;2023-03-14T13:35:47;9.10;;;4.70;;
78342;SDS011;67618;52.444;21.192;2023-03-14T13:40:56;8.70;;;6.60;;
78342;SDS011;67618;52.444;21.192;2023-03-14T13:46:03;11.50;;;7.40;;
78342;SDS011;67618;52.444;21.192;2023-03-14T13:51:09;14.20;;;8.90;;
78342;SDS011;67618;52.444;21.192;2023-03-14T13:56:14;10.80;;;6.60;;
78342;SDS011;67618;52.444;21.192;2023-03-14T14:01:20;14.60;;;9.00;;
78342;SDS011;67618;52.444;21.192;2023-03-14T14:06:29;14.90;;;7.40;;
78342;SDS011;67618;52.444;21.192;2023-03-14T14:11:46;13.30;;;9.00;;
78342;SDS011;67618;52.444;21.192;2023-03-14T14:16:49;13.50;;;8.10;;
78342;SDS011;67618;52.444;21.192;2023-03-14T14:21:52;12.50;;;8.20;;
78342;SDS011;67618;52.444;21.192;2023-03-14T14:26:59;290.00;;;102.70;;
78342;SDS011;67618;52.444;21.192;2023-03-14T14:32:12;365.30;;;131.00;;
78342;SDS011;67618;52.444;21.192;2023-03-14T14:37:19;140.30;;;65.70;;
78342;SDS011;67618;52.444;21.192;2023-03-14T14:42:24;27.20;;;16.00;;
78342;SDS011;67618;52.444;21.192;2023-03-14T14:47:28;18.90;;;8.50;;
78342;SDS011;67618;52.444;21.192;2023-03-14T14:52:33;67.10;;;28.60;;
78342;SDS011;67618;52.444;21.192;2023-03-14T14:57:40;22.80;;;10.60;;
78342;SDS011;67618;52.444;21.192;2023-03-14T15:02:58;28.40;;;17.20;;
78342;SDS011;67618;52.444;21.192;2023-03-14T15:08:01;26.10;;;13.30;;
78342;SDS011;67618;52.444;21.192;2023-03-14T15:13:04;29.10;;;16.10;;
78342;SDS011;67618;52.444;21.192;2023-03-14T15:18:13;30.90;;;17.90;;
78342;SDS011;67618;52.444;21.192;2023-03-14T15:23:17;25.90;;;14.10;;
78342;SDS011;67618;52.444;21.192;2023-03-14T15:28:24;27.90;;;17.30;;
78342;SDS011;67618;52.444;21.192;2023-03-14T15:33:28;23.70;;;10.80;;
78342;SDS011;67618;52.444;21.192;2023-03-14T15:38:30;38.30;;;15.60;;
78342;SDS011;67618;52.444;21.192;2023-03-14T15:43:31;26.00;;;13.80;;
78342;SDS011;67618;52.444;21.192;2023-03-14T15:48:33;16.40;;;10.60;;
78342;SDS011;67618;52.444;21.192;2023-03-14T15:53:34;48.40;;;17.40;;
78342;SDS011;67618;52.444;21.192;2023-03-14T15:58:39;93.20;;;30.40;;
78342;SDS011;67618;52.444;21.192;2023-03-14T16:03:42;104.30;;;37.00;;
78342;SDS011;67618;52.444;21.192;2023-03-14T16:08:45;109.50;;;43.00;;
78342;SDS011;67618;52.444;21.192;2023-03-14T16:13:47;37.30;;;17.00;;
78342;SDS011;67618;52.444;21.192;2023-03-14T16:18:48;24.50;;;12.30;;
78342;SDS011;67618;52.444;21.192;2023-03-14T16:23:50;17.00;;;9.30;;
78342;SDS011;67618;52.444;21.192;2023-03-14T16:28:51;20.70;;;11.00;;
78342;SDS011;67618;52.444;21.192;2023-03-14T16:33:54;14.40;;;8.60;;
78342;SDS011;67618;52.444;21.192;2023-03-14T16:38:55;16.40;;;8.50;;
78342;SDS011;67618;52.444;21.192;2023-03-14T16:43:57;16.90;;;9.40;;
78342;SDS011;67618;52.444;21.192;2023-03-14T16:48:59;26.00;;;15.60;;
78342;SDS011;67618;52.444;21.192;2023-03-14T16:54:01;11.80;;;8.00;;
78342;SDS011;67618;52.444;21.192;2023-03-14T16:59:02;29.20;;;14.80;;
78342;SDS011;67618;52.444;21.192;2023-03-14T17:04:04;34.10;;;14.80;;
78342;SDS011;67618;52.444;21.192;2023-03-14T17:09:05;21.80;;;12.00;;
78342;SDS011;67618;52.444;21.192;2023-03-14T17:14:07;26.50;;;12.80;;
78342;SDS011;67618;52.444;21.192;2023-03-14T17:19:08;38.10;;;18.70;;
78342;SDS011;67618;52.444;21.192;2023-03-14T17:24:10;30.10;;;13.70;;
78342;SDS011;67618;52.444;21.192;2023-03-14T17:29:11;35.60;;;17.20;;
78342;SDS011;67618;52.444;21.192;2023-03-14T17:34:13;57.90;;;39.60;;
78342;SDS011;67618;52.444;21.192;2023-03-14T17:39:14;34.50;;;16.80;;
78342;SDS011;67618;52.444;21.192;2023-03-14T17:44:16;31.30;;;15.50;;
78342;SDS011;67618;52.444;21.192;2023-03-14T17:49:17;27.80;;;14.90;;
78342;SDS011;67618;52.444;21.192;2023-03-14T17:54:18;30.10;;;16.30;;
78342;SDS011;67618;52.444;21.192;2023-03-14T17:59:20;26.10;;;13.80;;
78342;SDS011;67618;52.444;21.192;2023-03-14T18:04:24;29.90;;;14.60;;
78342;SDS011;67618;52.444;21.192;2023-03-14T18:09:25;32.70;;;17.50;;
78342;SDS011;67618;52.444;21.192;2023-03-14T18:14:29;24.70;;;14.50;;
78342;SDS011;67618;52.444;21.192;2023-03-14T18:19:31;40.60;;;26.70;;
78342;SDS011;67618;52.444;21.192;2023-03-14T18:24:35;68.40;;;35.70;;
78342;SDS011;67618;52.444;21.192;2023-03-14T18:29:37;37.70;;;17.10;;
78342;SDS011;67618;52.444;21.192;2023-03-14T18:34:39;47.60;;;22.70;;
78342;SDS011;67618;52.444;21.192;2023-03-14T18:39:42;43.80;;;16.80;;
78342;SDS011;67618;52.444;21.192;2023-03-14T18:44:44;30.30;;;15.50;;
78342;SDS011;67618;52.444;21.192;2023-03-14T18:49:46;28.70;;;13.40;;
78342;SDS011;67618;52.444;21.192;2023-03-14T18:54:47;28.00;;;14.00;;
78342;SDS011;67618;52.444;21.192;2023-03-14T18:59:49;27.00;;;13.80;;
78342;SDS011;67618;52.444;21.192;2023-03-14T19:04:52;29.60;;;13.30;;
78342;SDS011;67618;52.444;21.192;2023-03-14T19:09:54;23.40;;;10.30;;
78342;SDS011;67618;52.444;21.192;2023-03-14T19:14:55;14.00;;;8.50;;
78342;SDS011;67618;52.444;21.192;2023-03-14T19:19:57;13.90;;;8.30;;
78342;SDS011;67618;52.444;21.192;2023-03-14T19:24:58;14.20;;;8.20;;
78342;SDS011;67618;52.444;21.192;2023-03-14T19:30:00;13.20;;;8.00;;
78342;SDS011;67618;52.444;21.192;2023-03-14T19:35:01;18.50;;;9.70;;
78342;SDS011;67618;52.444;21.192;2023-03-14T19:40:03;13.30;;;7.40;;
78342;SDS011;67618;52.444;21.192;2023-03-14T19:45:05;11.70;;;6.90;;
78342;SDS011;67618;52.444;21.192;2023-03-14T19:50:08;13.50;;;6.70;;
78342;SDS011;67618;52.444;21.192;2023-03-14T19:55:10;12.20;;;6.50;;
78342;SDS011;67618;52.444;21.192;2023-03-14T20:00:13;12.50;;;6.60;;
78342;SDS011;67618;52.444;21.192;2023-03-14T20:05:20;10.00;;;6.60;;
78342;SDS011;67618;52.444;21.192;2023-03-14T20:10:24;15.90;;;8.10;;
78342;SDS011;67618;52.444;21.192;2023-03-14T20:15:25;16.80;;;9.10;;
78342;SDS011;67618;52.444;21.192;2023-03-14T20:20:27;16.90;;;7.80;;
78342;SDS011;67618;52.444;21.192;2023-03-14T20:25:28;12.10;;;7.60;;
78342;SDS011;67618;52.444;21.192;2023-03-14T20:30:30;16.10;;;8.50;;
78342;SDS011;67618;52.444;21.192;2023-03-14T20:35:31;12.90;;;7.50;;
78342;SDS011;67618;52.444;21.192;2023-03-14T20:40:33;14.00;;;8.00;;
78342;SDS011;67618;52.444;21.192;2023-03-14T20:45:34;15.00;;;8.20;;
78342;SDS011;67618;52.444;21.192;2023-03-14T20:50:36;14.90;;;8.80;;
78342;SDS011;67618;52.444;21.192;2023-03-14T20:55:38;21.60;;;12.00;;
78342;SDS011;67618;52.444;21.192;2023-03-14T21:00:43;18.40;;;10.10;;
78342;SDS011;67618;52.444;21.192;2023-03-14T21:05:46;12.60;;;7.90;;
78342;SDS011;67618;52.444;21.192;2023-03-14T21:10:48;14.70;;;8.00;;
78342;SDS011;67618;52.444;21.192;2023-03-14T21:15:51;13.80;;;8.30;;
78342;SDS011;67618;52.444;21.192;2023-03-14T21:20:54;15.30;;;8.70;;
78342;SDS011;67618;52.444;21.192;2023-03-14T21:25:59;20.60;;;11.80;;
78342;SDS011;67618;52.444;21.192;2023-03-14T21:31:03;20.50;;;11.20;;
78342;SDS011;67618;52.444;21.192;2023-03-14T21:36:07;18.40;;;10.80;;
78342;SDS011;67618;52.444;21.192;2023-03-14T21:41:08;13.60;;;8.30;;
78342;SDS011;67618;52.444;21.192;2023-03-14T21:46:10;18.40;;;9.20;;
78342;SDS011;67618;52.444;21.192;2023-03-14T21:51:13;14.10;;;7.80;;
78342;SDS011;67618;52.444;21.192;2023-03-14T21:56:15;16.60;;;8.30;;
78342;SDS011;67618;52.444;21.192;2023-03-14T22:01:16;27.70;;;11.10;;
78342;SDS011;67618;52.444;21.192;2023-03-14T22:06:17;20.70;;;10.50;;
78342;SDS011;67618;52.444;21.192;2023-03-14T22:11:19;16.70;;;8.70;;
78342;SDS011;67618;52.444;21.192;2023-03-14T22:16:22;16.00;;;9.90;;
78342;SDS011;67618;52.444;21.192;2023-03-14T22:21:23;21.30;;;12.10;;
78342;SDS011;67618;52.444;21.192;2023-03-14T22:26:24;14.70;;;9.40;;
78342;SDS011;67618;52.444;21.192;2023-03-14T22:31:26;15.80;;;8.70;;
78342;SDS011;67618;52.444;21.192;2023-03-14T22:36:27;14.00;;;8.10;;
78342;SDS011;67618;52.444;21.192;2023-03-14T22:41:29;12.50;;;7.30;;
78342;SDS011;67618;52.444;21.192;2023-03-14T22:46:30;12.00;;;7.80;;
78342;SDS011;67618;52.444;21.192;2023-03-14T22:51:32;18.10;;;7.80;;
78342;SDS011;67618;52.444;21.192;2023-03-14T22:56:33;15.10;;;8.60;;
78342;SDS011;67618;52.444;21.192;2023-03-14T23:01:35;14.10;;;8.40;;
78342;SDS011;67618;52.444;21.192;2023-03-14T23:06:37;15.30;;;7.80;;
78342;SDS011;67618;52.444;21.192;2023-03-14T23:11:38;12.40;;;7.80;;
78342;SDS011;67618;52.444;21.192;2023-03-14T23:16:40;12.80;;;7.60;;
78342;SDS011;67618;52.444;21.192;2023-03-14T23:21:41;12.90;;;8.10;;
78342;SDS011;67618;52.444;21.192;2023-03-14T23:26:43;15.80;;;8.80;;
78342;SDS011;67618;52.444;21.192;2023-03-14T23:31:46;10.70;;;7.20;;
78342;SDS011;67618;52.444;21.192;2023-03-14T23:36:47;12.30;;;8.20;;
78342;SDS011;67618;52.444;21.192;2023-03-14T23:41:49;9.20;;;6.20;;
78342;SDS011;67618;52.444;21.192;2023-03-14T23:46:50;10.20;;;5.80;;
78342;SDS011;67618;52.444;21.192;2023-03-14T23:56:54;12.20;;;7.00;;
